Time;durP1;ratioP1;P1;durP2;ratioP2;P2;SDS_P1;SDS_P2;PMS_P1;PMS_P2;Temp;Humidity;BMP_temperature;BMP_pressure;BME280_temperature;BME280_humidity;BME280_pressure;Samples;Min_cycle;Max_cycle;Signal;HPM_P1;HPM_P2
2022/01/15 00:01:43;;;;;;;;;;;6.10;99.90;;;;;;5083153;28;19930;-80
2022/01/15 00:04:09;;;;;;;;;;;6.10;99.90;;;;;;5098808;28;19964;-80
2022/01/15 00:06:35;;;;;;;;;;;6.10;99.90;;;;;;5081849;28;19946;-80
2022/01/15 00:09:00;;;;;;;;;;;6.20;99.90;;;;;;5098896;28;19924;-79
2022/01/15 00:11:26;;;;;;;;;;;6.00;99.90;;;;;;5109601;28;19924;-79
2022/01/15 00:13:56;;;;;;;;;;;6.30;99.90;;;;;;5096153;28;19928;-79
2022/01/15 00:19:02;;;;;;;;;;;6.10;99.90;;;;;;5121614;22;19931;-80
2022/01/15 00:21:28;;;;;;;;;;;6.00;99.90;;;;;;5079195;28;19924;-81
2022/01/15 00:23:54;;;;;;;;;;;6.00;99.90;;;;;;5074765;23;20303;-80
2022/01/15 00:26:19;;;;;;;;;;;6.10;99.90;;;;;;5087819;22;19969;-80
2022/01/15 00:28:45;;;;;;;;;;;6.10;99.90;;;;;;5064798;28;19924;-80
2022/01/15 00:31:11;;;;;;;;;;;6.20;99.90;;;;;;5078655;22;19924;-80
2022/01/15 00:33:36;;;;;;;;;;;6.20;99.90;;;;;;5084046;28;19924;-80
2022/01/15 00:36:02;;;;;;;;;;;6.30;99.90;;;;;;5101381;28;19946;-80
2022/01/15 00:38:27;;;;;;;;;;;6.00;99.90;;;;;;5082965;28;19928;-80
2022/01/15 00:40:53;;;;;;;;;;;6.00;99.90;;;;;;5108517;22;19924;-80
2022/01/15 00:43:19;;;;;;;;;;;6.00;99.90;;;;;;5082947;28;20022;-80
2022/01/15 00:45:45;;;;;;;;;;;6.30;99.90;;;;;;5083481;28;19924;-80
2022/01/15 00:48:10;;;;;;;;;;;6.00;99.90;;;;;;5101790;28;20006;-80
2022/01/15 00:50:36;;;;;;;;;;;6.20;99.90;;;;;;5082713;28;19924;-80
2022/01/15 00:53:02;;;;;;;;;;;6.00;99.90;;;;;;5088920;22;20308;-80
2022/01/15 00:55:27;;;;;;;;;;;5.90;99.90;;;;;;5082302;28;19946;-80
2022/01/15 00:57:53;;;;;;;;;;;5.80;99.90;;;;;;5100824;28;19924;-80
2022/01/15 01:00:20;;;;;;;;;;;6.30;99.90;;;;;;5099703;28;20007;-80
2022/01/15 01:02:46;;;;;;;;;;;5.90;99.90;;;;;;5035444;22;1816270;-80
2022/01/15 01:05:12;;;;;;;;;;;5.80;99.90;;;;;;5077683;28;19931;-80
2022/01/15 01:07:37;;;;;;;;;;;6.10;99.90;;;;;;5084064;28;19947;-80
2022/01/15 01:10:54;;;;;;;;;;;6.50;99.90;;;;;;5099203;28;19931;-80
2022/01/15 01:23:19;;;;;;;;;;;5.80;99.90;;;;;;5100085;28;19948;-80
2022/01/15 01:25:48;;;;;;;;;;;6.30;99.90;;;;;;5081771;28;19931;-80
2022/01/15 01:28:30;;;;;;;;;;;6.00;99.90;;;;;;5106614;22;19967;-80
2022/01/15 01:31:14;;;;;;;;;;;6.10;99.90;;;;;;5082284;28;19928;-80
2022/01/15 01:33:44;;;;;;;;;;;5.70;99.90;;;;;;5108097;22;19935;-80
2022/01/15 01:38:48;;;;;;;;;;;5.70;99.90;;;;;;5082874;28;19924;-80
2022/01/15 01:41:18;;;;;;;;;;;5.70;99.90;;;;;;5065107;28;19924;-80
2022/01/15 01:43:59;;;;;;;;;;;5.80;99.90;;;;;;5068849;22;20012;-80
2022/01/15 01:48:50;;;;;;;;;;;5.80;99.90;;;;;;5099016;22;19928;-80
2022/01/15 01:51:25;;;;;;;;;;;5.80;99.90;;;;;;5082104;28;19925;-80
2022/01/15 01:53:51;;;;;;;;;;;5.70;99.90;;;;;;5098843;28;19928;-80
2022/01/15 01:56:17;;;;;;;;;;;5.70;99.90;;;;;;5089860;22;19932;-80
2022/01/15 01:58:43;;;;;;;;;;;5.70;99.90;;;;;;5082804;28;19925;-80
2022/01/15 02:01:08;;;;;;;;;;;5.90;99.90;;;;;;5081640;28;19924;-80
2022/01/15 02:03:34;;;;;;;;;;;5.70;99.90;;;;;;5098864;28;19934;-80
2022/01/15 02:05:59;;;;;;;;;;;6.10;99.90;;;;;;5082346;28;19924;-80
2022/01/15 02:08:25;;;;;;;;;;;6.00;99.90;;;;;;5090842;22;19931;-80
2022/01/15 02:10:50;;;;;;;;;;;5.70;99.90;;;;;;5062441;23;20163;-80
2022/01/15 02:13:18;;;;;;;;;;;5.70;99.90;;;;;;5073613;23;20333;-80
2022/01/15 02:15:43;;;;;;;;;;;5.70;99.90;;;;;;5078614;28;19947;-79
2022/01/15 02:18:10;;;;;;;;;;;5.90;99.90;;;;;;5077854;28;20367;-80
2022/01/15 02:21:01;;;;;;;;;;;5.70;99.90;;;;;;5104903;22;19986;-80
2022/01/15 02:23:35;;;;;;;;;;;5.70;99.90;;;;;;5080688;28;19924;-80
2022/01/15 02:26:07;;;;;;;;;;;5.60;99.90;;;;;;5065629;28;20026;-80
2022/01/15 02:28:34;;;;;;;;;;;5.60;99.90;;;;;;5068432;28;19924;-80
2022/01/15 02:31:00;;;;;;;;;;;5.50;99.90;;;;;;5088490;22;19999;-80
2022/01/15 02:33:26;;;;;;;;;;;5.60;99.90;;;;;;5091230;22;19924;-80
2022/01/15 02:35:52;;;;;;;;;;;5.80;99.90;;;;;;5067993;28;19931;-80
2022/01/15 02:38:18;;;;;;;;;;;5.50;99.90;;;;;;5085058;28;19928;-80
2022/01/15 02:40:43;;;;;;;;;;;5.50;99.90;;;;;;5068655;28;19959;-80
2022/01/15 02:43:12;;;;;;;;;;;5.50;99.90;;;;;;5068053;28;19924;-80
2022/01/15 02:45:41;;;;;;;;;;;5.60;99.90;;;;;;5085025;28;20014;-80
2022/01/15 02:48:10;;;;;;;;;;;5.70;99.90;;;;;;5068145;28;19931;-80
2022/01/15 02:50:35;;;;;;;;;;;5.50;99.90;;;;;;5069104;28;19947;-80
2022/01/15 02:53:02;;;;;;;;;;;5.50;99.90;;;;;;5081276;28;19928;-80
2022/01/15 02:55:27;;;;;;;;;;;5.60;99.90;;;;;;5077566;28;19932;-80
2022/01/15 02:57:53;;;;;;;;;;;5.80;99.90;;;;;;5103672;28;19924;-80
2022/01/15 03:00:18;;;;;;;;;;;5.90;99.90;;;;;;5071947;23;19924;-80
2022/01/15 03:02:44;;;;;;;;;;;5.50;99.90;;;;;;5082366;28;19924;-80
2022/01/15 03:05:10;;;;;;;;;;;5.50;99.90;;;;;;5103282;22;19966;-80
2022/01/15 03:07:36;;;;;;;;;;;5.50;99.90;;;;;;5101973;28;19969;-80
2022/01/15 03:10:03;;;;;;;;;;;6.00;99.90;;;;;;5093034;22;19924;-80
2022/01/15 03:12:29;;;;;;;;;;;5.50;99.90;;;;;;5101419;28;19963;-80
2022/01/15 03:14:59;;;;;;;;;;;5.50;99.90;;;;;;5087577;22;19924;-80
2022/01/15 03:17:25;;;;;;;;;;;5.50;99.90;;;;;;5064492;28;20299;-80
2022/01/15 03:19:51;;;;;;;;;;;5.70;99.90;;;;;;5081353;28;19931;-80
2022/01/15 03:22:16;;;;;;;;;;;5.90;99.90;;;;;;5082063;28;19946;-79
2022/01/15 03:24:42;;;;;;;;;;;5.70;99.90;;;;;;5065043;28;19928;-79
2022/01/15 03:27:07;;;;;;;;;;;5.50;99.90;;;;;;5080574;28;19925;-80
2022/01/15 03:29:33;;;;;;;;;;;5.50;99.90;;;;;;5064636;28;19963;-80
2022/01/15 03:31:58;;;;;;;;;;;5.50;99.90;;;;;;5064388;28;19924;-79
2022/01/15 03:34:24;;;;;;;;;;;5.50;99.90;;;;;;5080991;28;20374;-80
2022/01/15 03:36:49;;;;;;;;;;;5.60;99.90;;;;;;5064291;28;19933;-80
2022/01/15 03:39:15;;;;;;;;;;;5.50;99.90;;;;;;5077367;22;19946;-80
2022/01/15 03:41:41;;;;;;;;;;;5.40;99.90;;;;;;5088407;22;19931;-80
2022/01/15 03:44:06;;;;;;;;;;;5.40;99.90;;;;;;5080842;28;19969;-80
2022/01/15 03:46:32;;;;;;;;;;;5.40;99.90;;;;;;5081583;28;20413;-80
2022/01/15 03:48:57;;;;;;;;;;;5.40;99.90;;;;;;5080713;28;19925;-79
2022/01/15 03:51:23;;;;;;;;;;;6.00;99.90;;;;;;5079528;28;19925;-80
2022/01/15 03:53:49;;;;;;;;;;;5.90;99.90;;;;;;5079935;28;19925;-80
2022/01/15 03:56:15;;;;;;;;;;;6.00;99.90;;;;;;5087604;22;19925;-80
2022/01/15 03:58:40;;;;;;;;;;;5.40;99.90;;;;;;5092897;28;19963;-80
2022/01/15 04:01:06;;;;;;;;;;;5.50;99.90;;;;;;5100015;23;19935;-79
2022/01/15 04:03:31;;;;;;;;;;;5.30;99.90;;;;;;5081200;28;19932;-80
2022/01/15 04:05:57;;;;;;;;;;;5.90;99.90;;;;;;5063929;28;19997;-80
2022/01/15 04:08:22;;;;;;;;;;;5.90;99.90;;;;;;5063878;28;19986;-80
2022/01/15 04:10:48;;;;;;;;;;;5.90;99.90;;;;;;5063983;28;19931;-80
2022/01/15 04:13:15;;;;;;;;;;;5.30;99.90;;;;;;5080838;28;19924;-80
2022/01/15 04:15:41;;;;;;;;;;;5.40;99.90;;;;;;5081676;28;19967;-80
2022/01/15 04:18:07;;;;;;;;;;;5.60;99.90;;;;;;5063160;28;19935;-80
2022/01/15 04:20:32;;;;;;;;;;;5.40;99.90;;;;;;5080356;28;19928;-80
2022/01/15 04:22:58;;;;;;;;;;;5.30;99.90;;;;;;5079579;28;19954;-80
2022/01/15 04:25:23;;;;;;;;;;;5.90;99.90;;;;;;5063677;28;20010;-80
2022/01/15 04:27:49;;;;;;;;;;;5.50;99.90;;;;;;5063416;28;20364;-80
2022/01/15 04:30:16;;;;;;;;;;;5.70;99.90;;;;;;5079721;28;20359;-80
2022/01/15 04:32:41;;;;;;;;;;;5.90;99.90;;;;;;5062798;28;19975;-80
2022/01/15 04:35:08;;;;;;;;;;;5.20;99.90;;;;;;5079795;28;19924;-80
2022/01/15 04:37:38;;;;;;;;;;;5.20;99.90;;;;;;5079486;28;19931;-79
2022/01/15 04:40:05;;;;;;;;;;;5.90;99.90;;;;;;5102795;23;20031;-79
2022/01/15 04:42:31;;;;;;;;;;;5.30;99.90;;;;;;5083255;28;19923;-80
2022/01/15 04:44:56;;;;;;;;;;;5.70;99.90;;;;;;5083136;28;19924;-80
2022/01/15 04:47:22;;;;;;;;;;;5.30;99.90;;;;;;5082509;28;19928;-80
2022/01/15 04:49:48;;;;;;;;;;;5.30;99.90;;;;;;5065960;28;19933;-80
2022/01/15 04:52:14;;;;;;;;;;;5.60;99.90;;;;;;5082454;28;19946;-80
2022/01/15 04:54:39;;;;;;;;;;;5.30;99.90;;;;;;5066232;28;19924;-80
2022/01/15 04:57:05;;;;;;;;;;;5.60;99.90;;;;;;5082742;28;20390;-79
2022/01/15 04:59:30;;;;;;;;;;;5.30;99.90;;;;;;5065792;28;20290;-80
2022/01/15 05:01:56;;;;;;;;;;;5.30;99.90;;;;;;5065847;28;19971;-79
2022/01/15 05:04:21;;;;;;;;;;;5.50;99.90;;;;;;5082418;28;19931;-80
2022/01/15 05:06:47;;;;;;;;;;;5.70;99.90;;;;;;5081572;28;19931;-79
2022/01/15 05:09:13;;;;;;;;;;;5.90;99.90;;;;;;5064622;28;19924;-80
2022/01/15 05:14:11;;;;;;;;;;;6.00;99.90;;;;;;5082857;28;19931;-80
2022/01/15 05:16:37;;;;;;;;;;;5.30;99.90;;;;;;5082093;28;20354;-80
2022/01/15 05:19:03;;;;;;;;;;;5.80;99.90;;;;;;5064843;28;20374;-80
2022/01/15 05:21:29;;;;;;;;;;;5.80;99.90;;;;;;5065394;28;19931;-79
2022/01/15 05:23:54;;;;;;;;;;;5.20;99.90;;;;;;5081414;28;19924;-80
2022/01/15 05:26:20;;;;;;;;;;;5.60;99.90;;;;;;5082319;28;19931;-80
2022/01/15 05:28:45;;;;;;;;;;;5.90;99.90;;;;;;5081816;28;19924;-80
2022/01/15 05:31:11;;;;;;;;;;;5.20;99.90;;;;;;5081537;28;19924;-80
2022/01/15 05:33:36;;;;;;;;;;;5.20;99.90;;;;;;5065714;28;19924;-80
2022/01/15 05:36:02;;;;;;;;;;;5.20;99.90;;;;;;5063948;28;19924;-79
2022/01/15 05:38:27;;;;;;;;;;;5.20;99.90;;;;;;5081511;28;19928;-80
2022/01/15 05:40:53;;;;;;;;;;;5.20;99.90;;;;;;5081343;28;19950;-79
2022/01/15 05:43:19;;;;;;;;;;;5.20;99.90;;;;;;5081428;28;19931;-80
2022/01/15 05:45:45;;;;;;;;;;;5.50;99.90;;;;;;5064468;28;19924;-80
2022/01/15 05:48:10;;;;;;;;;;;5.20;99.90;;;;;;5064663;28;20366;-79
2022/01/15 05:50:36;;;;;;;;;;;5.40;99.90;;;;;;5099717;28;19930;-79
2022/01/15 05:53:01;;;;;;;;;;;5.10;99.90;;;;;;5081565;28;19924;-79
2022/01/15 05:55:27;;;;;;;;;;;5.20;99.90;;;;;;5088064;28;19928;-80
2022/01/15 05:57:53;;;;;;;;;;;5.10;99.90;;;;;;5081068;23;19929;-80
2022/01/15 06:00:18;;;;;;;;;;;5.70;99.90;;;;;;5081182;28;20329;-80
2022/01/15 06:02:45;;;;;;;;;;;5.10;99.90;;;;;;5081440;28;19978;-80
2022/01/15 06:05:10;;;;;;;;;;;5.10;99.90;;;;;;5082431;28;19928;-79
2022/01/15 06:07:36;;;;;;;;;;;5.10;99.90;;;;;;5065905;28;19977;-80
2022/01/15 06:10:02;;;;;;;;;;;5.20;99.90;;;;;;5084070;28;19924;-80
2022/01/15 06:12:31;;;;;;;;;;;5.30;99.90;;;;;;5083806;28;19925;-79
2022/01/15 06:14:57;;;;;;;;;;;5.60;99.90;;;;;;5082185;28;19931;-79
2022/01/15 06:17:22;;;;;;;;;;;5.70;99.90;;;;;;5082173;28;20282;-79
2022/01/15 06:19:48;;;;;;;;;;;5.80;99.90;;;;;;5082340;28;19929;-80
2022/01/15 06:22:13;;;;;;;;;;;5.40;99.90;;;;;;5084544;22;19925;-80
2022/01/15 06:24:39;;;;;;;;;;;5.30;99.90;;;;;;5081461;28;19929;-79
2022/01/15 06:27:05;;;;;;;;;;;4.90;99.90;;;;;;5081618;28;20390;-79
2022/01/15 06:29:30;;;;;;;;;;;5.00;99.90;;;;;;5081370;28;19968;-80
2022/01/15 06:31:56;;;;;;;;;;;5.20;99.90;;;;;;5064904;28;20388;-80
2022/01/15 06:34:21;;;;;;;;;;;5.50;99.90;;;;;;5081853;28;20295;-80
2022/01/15 06:36:47;;;;;;;;;;;5.50;99.90;;;;;;5082086;28;20383;-79
2022/01/15 06:39:13;;;;;;;;;;;5.20;99.90;;;;;;5099252;28;19931;-80
2022/01/15 06:41:38;;;;;;;;;;;4.90;99.90;;;;;;5048374;28;20353;-80
2022/01/15 06:44:04;;;;;;;;;;;5.00;99.90;;;;;;5081932;28;19924;-80
2022/01/15 06:46:29;;;;;;;;;;;4.90;99.90;;;;;;5064990;28;19928;-80
2022/01/15 06:48:55;;;;;;;;;;;5.00;99.90;;;;;;5098966;28;20370;-80
2022/01/15 06:51:20;;;;;;;;;;;4.90;99.90;;;;;;5081657;28;19925;-80
2022/01/15 06:53:46;;;;;;;;;;;4.90;99.90;;;;;;5065048;28;19977;-79
2022/01/15 06:56:11;;;;;;;;;;;4.90;99.90;;;;;;5064018;28;19924;-80
2022/01/15 06:58:37;;;;;;;;;;;4.90;99.90;;;;;;5047171;28;19925;-79
2022/01/15 07:01:03;;;;;;;;;;;5.30;99.90;;;;;;5048025;28;19927;-80
2022/01/15 07:03:28;;;;;;;;;;;4.90;99.90;;;;;;5047899;28;20019;-79
2022/01/15 07:05:54;;;;;;;;;;;4.90;99.90;;;;;;5081566;28;19920;-80
2022/01/15 07:08:19;;;;;;;;;;;5.40;99.90;;;;;;5048088;28;19935;-80
2022/01/15 07:10:45;;;;;;;;;;;4.90;99.90;;;;;;5081537;28;20275;-80
2022/01/15 07:13:11;;;;;;;;;;;5.20;99.90;;;;;;5082892;28;19921;-80
2022/01/15 07:15:36;;;;;;;;;;;4.90;99.90;;;;;;5081551;28;20069;-80
2022/01/15 07:18:02;;;;;;;;;;;4.90;99.90;;;;;;5082051;22;19924;-80
2022/01/15 07:20:28;;;;;;;;;;;4.90;99.90;;;;;;5101730;28;20023;-80
2022/01/15 07:22:54;;;;;;;;;;;4.90;99.90;;;;;;5083839;28;20289;-80
2022/01/15 07:25:20;;;;;;;;;;;5.40;99.90;;;;;;5092346;22;19947;-80
2022/01/15 07:27:46;;;;;;;;;;;4.80;99.90;;;;;;5066211;28;20010;-80
2022/01/15 07:30:12;;;;;;;;;;;4.80;99.90;;;;;;5067830;28;19928;-80
2022/01/15 07:32:39;;;;;;;;;;;4.80;99.90;;;;;;5087310;22;19923;-80
2022/01/15 07:35:05;;;;;;;;;;;4.80;99.90;;;;;;5096057;28;19931;-80
2022/01/15 07:37:31;;;;;;;;;;;4.80;99.90;;;;;;5104566;28;19924;-80
2022/01/15 07:39:57;;;;;;;;;;;4.80;99.90;;;;;;5085581;28;19935;-80
2022/01/15 07:42:22;;;;;;;;;;;4.80;99.90;;;;;;5067735;28;19925;-80
2022/01/15 07:44:48;;;;;;;;;;;5.30;99.90;;;;;;5067827;28;20290;-80
2022/01/15 07:47:13;;;;;;;;;;;5.00;99.90;;;;;;5067665;28;20014;-80
2022/01/15 07:49:40;;;;;;;;;;;5.30;99.90;;;;;;5067917;28;19924;-80
2022/01/15 07:52:05;;;;;;;;;;;4.80;99.90;;;;;;5070702;23;19974;-80
2022/01/15 07:54:31;;;;;;;;;;;4.80;99.90;;;;;;5079844;28;19954;-80
2022/01/15 07:56:58;;;;;;;;;;;4.80;99.90;;;;;;5063916;28;20110;-80
2022/01/15 07:59:28;;;;;;;;;;;5.10;99.90;;;;;;5096858;22;19991;-80
2022/01/15 08:01:54;;;;;;;;;;;4.70;99.90;;;;;;5080824;22;19925;-80
2022/01/15 08:04:20;;;;;;;;;;;4.70;99.90;;;;;;5091950;22;19924;-79
2022/01/15 08:06:45;;;;;;;;;;;4.80;99.90;;;;;;5066827;28;19930;-79
2022/01/15 08:09:11;;;;;;;;;;;5.10;99.90;;;;;;5067366;28;19949;-80
2022/01/15 08:11:36;;;;;;;;;;;5.20;99.90;;;;;;5067112;28;19985;-80
2022/01/15 08:14:02;;;;;;;;;;;5.00;99.90;;;;;;5083130;28;19931;-80
2022/01/15 08:16:28;;;;;;;;;;;5.30;99.90;;;;;;5070207;22;19956;-80
2022/01/15 08:18:53;;;;;;;;;;;4.70;99.90;;;;;;5079972;28;20398;-79
2022/01/15 08:23:44;;;;;;;;;;;4.80;99.90;;;;;;5115769;22;19930;-80
2022/01/15 08:26:10;;;;;;;;;;;4.80;99.90;;;;;;5072500;23;19924;-80
2022/01/15 08:28:37;;;;;;;;;;;4.80;99.90;;;;;;5063959;28;19924;-80
2022/01/15 08:31:06;;;;;;;;;;;4.80;99.90;;;;;;5062783;28;19929;-80
2022/01/15 08:33:32;;;;;;;;;;;5.40;99.90;;;;;;5062735;28;19951;-80
2022/01/15 08:35:58;;;;;;;;;;;4.70;99.90;;;;;;5063240;28;19925;-80
2022/01/15 08:38:23;;;;;;;;;;;4.70;99.90;;;;;;5062754;28;19924;-80
2022/01/15 08:40:49;;;;;;;;;;;4.70;99.90;;;;;;5063224;28;19924;-80
2022/01/15 08:43:15;;;;;;;;;;;4.90;99.90;;;;;;5062697;28;19931;-80
2022/01/15 08:45:41;;;;;;;;;;;4.70;99.90;;;;;;5062983;28;20294;-80
2022/01/15 08:48:07;;;;;;;;;;;4.70;99.90;;;;;;5062845;28;20271;-80
2022/01/15 08:50:33;;;;;;;;;;;4.70;99.90;;;;;;5079249;28;19928;-80
2022/01/15 08:52:58;;;;;;;;;;;5.30;99.90;;;;;;5062911;28;19931;-80
2022/01/15 08:55:28;;;;;;;;;;;5.20;99.90;;;;;;5061849;28;19924;-80
2022/01/15 08:57:54;;;;;;;;;;;4.70;99.90;;;;;;5079228;28;19924;-80
2022/01/15 09:00:20;;;;;;;;;;;4.70;99.90;;;;;;5092567;22;19953;-80
2022/01/15 09:02:46;;;;;;;;;;;4.70;99.90;;;;;;5089638;22;20045;-80
2022/01/15 09:05:13;;;;;;;;;;;4.70;99.90;;;;;;5071203;22;20334;-80
2022/01/15 09:07:39;;;;;;;;;;;5.30;99.90;;;;;;5056526;22;19916;-80
2022/01/15 09:10:05;;;;;;;;;;;4.70;99.90;;;;;;5083151;28;20286;-80
2022/01/15 09:12:30;;;;;;;;;;;4.70;99.90;;;;;;5107347;22;19924;-80
2022/01/15 09:14:58;;;;;;;;;;;5.30;99.90;;;;;;5093645;22;19931;-80
2022/01/15 09:17:28;;;;;;;;;;;4.70;99.90;;;;;;5080032;22;19969;-80
2022/01/15 09:19:54;;;;;;;;;;;4.70;99.90;;;;;;5071226;22;19936;-80
2022/01/15 09:22:23;;;;;;;;;;;4.70;99.90;;;;;;5083008;22;19928;31
2022/01/15 09:24:49;;;;;;;;;;;4.70;99.90;;;;;;5087970;22;20299;-80
2022/01/15 09:30:15;;;;;;;;;;;4.70;99.90;;;;;;5099347;28;19980;-80
2022/01/15 09:32:51;;;;;;;;;;;5.40;99.90;;;;;;5097093;22;20315;-80
2022/01/15 09:35:19;;;;;;;;;;;4.70;99.90;;;;;;5061732;23;19925;-80
2022/01/15 09:37:47;;;;;;;;;;;4.60;99.90;;;;;;5072224;23;19955;-80
2022/01/15 09:40:12;;;;;;;;;;;4.60;99.90;;;;;;5086380;22;20282;-80
2022/01/15 09:42:39;;;;;;;;;;;4.60;99.90;;;;;;5062899;28;19925;-80
2022/01/15 09:45:06;;;;;;;;;;;4.60;99.90;;;;;;5062658;28;19924;-80
2022/01/15 09:47:32;;;;;;;;;;;4.60;99.90;;;;;;5071726;22;19931;-80
2022/01/15 09:49:58;;;;;;;;;;;4.60;99.90;;;;;;5087026;22;19995;-80
2022/01/15 09:52:24;;;;;;;;;;;4.60;99.90;;;;;;5092216;22;19928;-80
2022/01/15 09:54:50;;;;;;;;;;;4.60;99.90;;;;;;5085894;22;19931;-80
2022/01/15 09:57:16;;;;;;;;;;;4.60;99.90;;;;;;5079508;22;19968;-80
2022/01/15 09:59:42;;;;;;;;;;;4.60;99.90;;;;;;5057018;22;19973;-80
2022/01/15 10:02:08;;;;;;;;;;;4.60;99.90;;;;;;5081538;28;20023;-80
2022/01/15 10:04:35;;;;;;;;;;;4.60;99.90;;;;;;5081529;28;19931;-79
2022/01/15 10:07:17;;;;;;;;;;;4.90;99.90;;;;;;5090088;22;20386;-80
2022/01/15 10:09:44;;;;;;;;;;;4.60;99.90;;;;;;5081370;28;19931;-80
2022/01/15 10:12:10;;;;;;;;;;;4.50;99.90;;;;;;5080871;28;20277;-79
2022/01/15 10:14:36;;;;;;;;;;;4.60;99.90;;;;;;5097434;28;20345;-79
2022/01/15 10:17:03;;;;;;;;;;;4.60;99.90;;;;;;5078770;28;19959;-79
2022/01/15 10:19:33;;;;;;;;;;;4.50;99.90;;;;;;5098387;28;19932;-80
2022/01/15 10:22:06;;;;;;;;;;;4.50;99.90;;;;;;5104813;22;19924;-80
2022/01/15 10:24:32;;;;;;;;;;;4.50;99.90;;;;;;5085711;22;19925;-80
2022/01/15 10:27:16;;;;;;;;;;;4.50;99.90;;;;;;5076182;22;20306;-80
2022/01/15 10:29:42;;;;;;;;;;;4.60;99.90;;;;;;5081671;22;19925;-80
2022/01/15 10:32:12;;;;;;;;;;;4.60;99.90;;;;;;5092699;22;19928;-80
2022/01/15 10:34:39;;;;;;;;;;;4.50;99.90;;;;;;5045853;28;19929;-80
2022/01/15 10:37:36;;;;;;;;;;;4.50;99.90;;;;;;5061254;28;19932;-80
2022/01/15 10:40:04;;;;;;;;;;;4.50;99.90;;;;;;5093248;22;19924;-80
2022/01/15 10:42:30;;;;;;;;;;;4.50;99.90;;;;;;5098010;22;20375;-80
2022/01/15 10:44:58;;;;;;;;;;;4.50;99.90;;;;;;5081201;28;19969;-80
2022/01/15 10:47:28;;;;;;;;;;;4.90;99.90;;;;;;5082518;28;19924;-80
2022/01/15 10:49:57;;;;;;;;;;;4.50;99.90;;;;;;5093714;22;19959;-80
2022/01/15 10:52:24;;;;;;;;;;;4.50;99.90;;;;;;5076222;22;20283;-80
2022/01/15 10:54:54;;;;;;;;;;;4.50;99.90;;;;;;5084234;22;20014;-79
2022/01/15 10:57:21;;;;;;;;;;;4.50;99.90;;;;;;5089289;22;20391;-80
2022/01/15 10:59:57;;;;;;;;;;;4.50;99.90;;;;;;5080103;22;19951;-80
2022/01/15 11:02:23;;;;;;;;;;;4.40;99.90;;;;;;5065383;28;19952;-80
2022/01/15 11:04:49;;;;;;;;;;;4.40;99.90;;;;;;5050648;28;19978;-80
2022/01/15 11:07:15;;;;;;;;;;;4.40;99.90;;;;;;5048662;28;19925;-80
2022/01/15 11:09:44;;;;;;;;;;;4.50;99.90;;;;;;5065603;28;19974;-80
2022/01/15 11:12:11;;;;;;;;;;;4.50;99.90;;;;;;5074295;22;19968;-80
2022/01/15 11:14:37;;;;;;;;;;;4.50;99.90;;;;;;5083138;22;20332;-80
2022/01/15 11:17:03;;;;;;;;;;;4.40;99.90;;;;;;5101866;22;19959;-80
2022/01/15 11:19:32;;;;;;;;;;;4.40;99.90;;;;;;5087364;22;19924;-80
2022/01/15 11:21:58;;;;;;;;;;;5.00;99.90;;;;;;5074954;22;19924;-80
2022/01/15 11:24:24;;;;;;;;;;;4.50;99.90;;;;;;5088636;22;19932;-80
2022/01/15 11:26:55;;;;;;;;;;;4.50;99.90;;;;;;5077545;22;20491;-80
2022/01/15 11:29:21;;;;;;;;;;;4.50;99.90;;;;;;5095560;22;20286;-80
2022/01/15 11:31:50;;;;;;;;;;;4.50;99.90;;;;;;5066874;28;19932;-80
2022/01/15 11:36:42;;;;;;;;;;;4.50;99.90;;;;;;5109725;22;19924;-80
2022/01/15 11:39:14;;;;;;;;;;;4.60;99.90;;;;;;5068901;28;19928;-80
2022/01/15 11:41:43;;;;;;;;;;;4.60;99.90;;;;;;5097093;22;19932;-80
2022/01/15 11:44:09;;;;;;;;;;;4.60;99.90;;;;;;5085430;28;20290;-80
2022/01/15 11:46:37;;;;;;;;;;;4.60;99.90;;;;;;5095288;22;19975;-80
2022/01/15 11:49:22;;;;;;;;;;;4.60;99.90;;;;;;5045297;28;19924;-80
2022/01/15 11:51:47;;;;;;;;;;;4.60;99.90;;;;;;5080249;22;20011;-80
2022/01/15 11:54:13;;;;;;;;;;;5.20;99.90;;;;;;5086397;22;19962;-80
2022/01/15 11:56:42;;;;;;;;;;;4.60;99.90;;;;;;5077886;22;19927;-80
2022/01/15 11:59:25;;;;;;;;;;;4.60;99.90;;;;;;5104297;28;19976;-80
2022/01/15 12:01:52;;;;;;;;;;;4.60;99.90;;;;;;5108491;22;20291;-80
2022/01/15 12:04:24;;;;;;;;;;;4.60;99.90;;;;;;5100748;28;20437;-80
2022/01/15 12:07:05;;;;;;;;;;;4.60;99.90;;;;;;5085229;22;19929;-80
2022/01/15 12:09:31;;;;;;;;;;;4.60;99.90;;;;;;5079310;22;19928;-80
2022/01/15 12:11:56;;;;;;;;;;;4.60;99.90;;;;;;5086949;22;19932;-80
2022/01/15 12:14:58;;;;;;;;;;;4.60;99.90;;;;;;5065263;28;19925;-80
2022/01/15 12:17:25;;;;;;;;;;;4.60;99.90;;;;;;5080819;22;19924;-80
2022/01/15 12:19:50;;;;;;;;;;;4.60;99.90;;;;;;5101568;22;20339;-80
2022/01/15 12:22:33;;;;;;;;;;;4.50;99.90;;;;;;5106842;22;19925;-80
2022/01/15 12:24:59;;;;;;;;;;;4.50;99.90;;;;;;5071223;23;19928;-80
2022/01/15 12:27:29;;;;;;;;;;;5.10;99.90;;;;;;5074251;22;19931;-80
2022/01/15 12:30:06;;;;;;;;;;;4.60;99.90;;;;;;5065690;28;20290;-79
2022/01/15 12:32:33;;;;;;;;;;;4.60;99.90;;;;;;5070571;23;19924;-80
2022/01/15 12:34:59;;;;;;;;;;;4.90;99.90;;;;;;5087541;22;19924;-80
2022/01/15 12:37:25;;;;;;;;;;;4.50;99.90;;;;;;5064029;28;19931;-80
2022/01/15 12:39:50;;;;;;;;;;;4.70;99.90;;;;;;5079518;28;20397;-80
2022/01/15 12:42:17;;;;;;;;;;;4.90;99.90;;;;;;5079694;28;19925;-79
2022/01/15 12:44:47;;;;;;;;;;;4.50;99.90;;;;;;5081390;22;19924;-80
2022/01/15 12:47:14;;;;;;;;;;;4.50;99.90;;;;;;5082478;28;19987;-79
2022/01/15 12:49:41;;;;;;;;;;;4.70;99.90;;;;;;5082944;28;19924;-80
2022/01/15 12:52:27;;;;;;;;;;;5.10;99.90;;;;;;5082070;28;19924;-79
2022/01/15 12:54:54;;;;;;;;;;;4.50;99.90;;;;;;5082566;28;19924;-80
2022/01/15 12:57:38;;;;;;;;;;;4.40;99.90;;;;;;5082607;28;19924;-79
2022/01/15 13:00:08;;;;;;;;;;;4.40;99.90;;;;;;5086492;22;19924;-79
2022/01/15 13:02:35;;;;;;;;;;;4.40;99.90;;;;;;5080530;22;20374;-83
2022/01/15 13:05:04;;;;;;;;;;;4.70;99.90;;;;;;5053948;28;20012;-83
2022/01/15 13:07:48;;;;;;;;;;;4.40;99.90;;;;;;5090413;22;19927;-82
2022/01/15 13:12:46;;;;;;;;;;;4.30;99.90;;;;;;5057454;28;19924;-80
2022/01/15 13:15:22;;;;;;;;;;;4.30;99.90;;;;;;5058769;22;20374;-79
2022/01/15 13:17:47;;;;;;;;;;;4.30;99.90;;;;;;5072266;22;20676;-79
2022/01/15 13:20:27;;;;;;;;;;;4.20;99.90;;;;;;5056786;23;19931;-81
2022/01/15 13:22:53;;;;;;;;;;;4.30;99.90;;;;;;5088262;22;19928;-80
2022/01/15 13:25:20;;;;;;;;;;;4.30;99.90;;;;;;5080311;22;19969;-80
2022/01/15 13:27:46;;;;;;;;;;;4.40;99.90;;;;;;5068796;23;19951;-80
2022/01/15 13:30:11;;;;;;;;;;;4.40;99.90;;;;;;5075934;23;19928;-80
2022/01/15 13:32:37;;;;;;;;;;;4.30;99.90;;;;;;5068471;28;19931;-81
2022/01/15 13:35:12;;;;;;;;;;;4.40;99.90;;;;;;5084739;28;19975;-81
2022/01/15 13:37:48;;;;;;;;;;;4.40;99.90;;;;;;5068834;28;19946;-81
2022/01/15 13:40:21;;;;;;;;;;;4.50;99.90;;;;;;5100048;22;19974;-80
2022/01/15 13:42:46;;;;;;;;;;;4.40;99.90;;;;;;5090566;22;20620;-80
2022/01/15 13:45:12;;;;;;;;;;;4.50;99.90;;;;;;5085767;22;20069;-81
2022/01/15 13:47:38;;;;;;;;;;;4.40;99.90;;;;;;5086298;22;19924;-80
2022/01/15 13:53:06;;;;;;;;;;;4.50;99.90;;;;;;5089228;22;20042;-83
2022/01/15 13:55:32;;;;;;;;;;;4.30;99.90;;;;;;5094484;22;19932;-80
2022/01/15 13:58:11;;;;;;;;;;;4.30;99.90;;;;;;5087923;22;19924;-80
2022/01/15 14:00:37;;;;;;;;;;;4.30;99.90;;;;;;5096093;22;19931;-80
2022/01/15 14:03:06;;;;;;;;;;;4.30;99.90;;;;;;5075847;23;19923;-80
2022/01/15 14:05:33;;;;;;;;;;;4.30;99.90;;;;;;5077512;23;20013;-80
2022/01/15 14:08:07;;;;;;;;;;;4.20;99.90;;;;;;5086712;23;19930;-80
2022/01/15 14:10:33;;;;;;;;;;;4.20;99.90;;;;;;5087552;22;19963;-80
2022/01/15 14:13:00;;;;;;;;;;;4.20;99.90;;;;;;5077389;22;19932;-80
2022/01/15 14:15:33;;;;;;;;;;;4.20;99.90;;;;;;5066915;23;19928;-80
2022/01/15 14:18:01;;;;;;;;;;;4.20;99.90;;;;;;5091998;22;20007;-80
2022/01/15 14:20:55;;;;;;;;;;;4.20;99.90;;;;;;5100490;22;19925;-80
2022/01/15 14:23:40;;;;;;;;;;;4.20;99.90;;;;;;5085610;23;19924;-80
2022/01/15 14:26:15;;;;;;;;;;;4.20;99.90;;;;;;5075534;22;19950;-80
2022/01/15 14:28:41;;;;;;;;;;;4.20;99.90;;;;;;5082020;22;19925;-80
2022/01/15 14:31:07;;;;;;;;;;;4.20;99.90;;;;;;5090848;22;19924;-80
2022/01/15 14:33:32;;;;;;;;;;;4.20;99.90;;;;;;5074670;22;20378;-80
2022/01/15 14:35:59;;;;;;;;;;;4.10;99.90;;;;;;5079453;23;19931;-80
2022/01/15 14:38:27;;;;;;;;;;;4.10;99.90;;;;;;5088656;22;19929;-80
2022/01/15 14:40:52;;;;;;;;;;;4.10;99.90;;;;;;5085371;23;19956;-80
2022/01/15 14:43:25;;;;;;;;;;;4.10;99.90;;;;;;5082608;23;20371;-80
2022/01/15 14:45:50;;;;;;;;;;;4.10;99.90;;;;;;5093021;22;20289;-80
2022/01/15 14:48:19;;;;;;;;;;;4.10;99.90;;;;;;5082739;22;19924;-80
2022/01/15 14:50:45;;;;;;;;;;;4.10;99.90;;;;;;5065794;23;19947;-80
2022/01/15 14:53:11;;;;;;;;;;;4.10;99.90;;;;;;5088747;23;19924;-80
2022/01/15 14:55:36;;;;;;;;;;;4.10;99.90;;;;;;5073601;22;19932;-80
2022/01/15 14:58:02;;;;;;;;;;;4.10;99.90;;;;;;5075254;22;19983;-80
2022/01/15 15:00:28;;;;;;;;;;;4.00;99.90;;;;;;5070936;22;19924;-82
2022/01/15 15:02:54;;;;;;;;;;;4.00;99.90;;;;;;5095652;22;21018;-80
2022/01/15 15:05:19;;;;;;;;;;;4.00;99.90;;;;;;5077177;22;19925;-81
2022/01/15 15:07:45;;;;;;;;;;;4.00;99.90;;;;;;5082851;22;19924;-80